createdAt,value
2022-12-25T20:15:14.587Z,100098.03
2022-12-25T20:18:16.850Z,100086.19
2022-12-25T20:21:20.717Z,100090.38
2022-12-25T20:24:23.379Z,100086.97
2022-12-25T20:27:25.040Z,100085.91
2022-12-25T20:30:28.113Z,100081.72
2022-12-25T20:33:29.812Z,100075.00
2022-12-25T20:36:37.217Z,100077.75
2022-12-25T20:39:39.663Z,100076.44
2022-12-25T20:42:43.140Z,100089.31
2022-12-25T20:45:50.036Z,100088.03
2022-12-25T20:48:53.076Z,100099.34
2022-12-25T20:51:58.466Z,100101.72
2022-12-25T20:55:03.583Z,100097.34
2022-12-25T20:58:05.205Z,100116.44
2022-12-25T21:01:12.708Z,100118.69
2022-12-25T21:04:16.398Z,100113.41
2022-12-25T21:07:18.504Z,100115.13
2022-12-25T21:10:20.154Z,100127.47
2022-12-25T21:13:23.677Z,100130.78
2022-12-25T21:16:26.885Z,100123.41
2022-12-25T21:19:28.538Z,100138.28
2022-12-25T21:22:30.600Z,100137.63
2022-12-25T21:25:32.221Z,100140.91
2022-12-25T21:28:34.407Z,100136.56
2022-12-25T21:31:56.276Z,100126.41
2022-12-25T21:34:58.064Z,100122.72
2022-12-25T21:37:59.705Z,100124.47
2022-12-25T21:41:05.106Z,100138.16
2022-12-25T21:44:07.948Z,100142.75
2022-12-25T21:47:10.964Z,100135.91
2022-12-25T21:50:35.999Z,100141.53
2022-12-25T21:53:40.643Z,100147.75
2022-12-25T21:56:45.428Z,100151.81
2022-12-25T21:59:48.123Z,100166.94
2022-12-25T22:02:51.156Z,100164.31
2022-12-25T22:06:16.112Z,100163.53
2022-12-25T22:09:21.740Z,100150.09
2022-12-25T22:12:42.690Z,100162.97
2022-12-25T22:16:03.037Z,100159.97
2022-12-25T22:19:24.739Z,100172.88
2022-12-25T22:22:28.807Z,100170.78
2022-12-25T22:25:30.602Z,100175.41
2022-12-25T22:28:32.264Z,100177.38
2022-12-25T22:31:33.946Z,100180.69
2022-12-25T22:34:37.213Z,100177.78
2022-12-25T22:37:39.290Z,100168.59
2022-12-25T22:40:40.916Z,100171.75
2022-12-25T22:44:16.000Z,100186.50
2022-12-25T22:47:04.308Z,100184.38
2022-12-25T22:50:08.633Z,100185.16
2022-12-25T22:53:10.214Z,100187.44
2022-12-25T22:56:11.821Z,100177.97
2022-12-25T22:59:15.116Z,100183.50
2022-12-25T23:02:16.985Z,100179.66
2022-12-25T23:05:20.124Z,100185.47
2022-12-25T23:08:21.885Z,100194.81
2022-12-25T23:11:23.943Z,100181.78
2022-12-25T23:14:39.045Z,100183.22
2022-12-25T23:17:59.239Z,100198.09
2022-12-25T23:21:22.587Z,100189.94
2022-12-25T23:24:43.026Z,100199.66
2022-12-25T23:27:45.639Z,100189.28
2022-12-25T23:30:47.351Z,100192.59
2022-12-25T23:33:49.012Z,100186.00
2022-12-25T23:36:51.989Z,100190.34
2022-12-25T23:39:54.184Z,100179.94
2022-12-25T23:42:55.869Z,100192.44
2022-12-25T23:45:57.563Z,100181.75
2022-12-25T23:48:59.709Z,100181.38
2022-12-25T23:52:02.761Z,100175.56
2022-12-25T23:55:05.542Z,100181.53
2022-12-25T23:58:07.189Z,100172.03
